sensor_id;sensor_type;location;lat;lon;timestamp;pressure;altitude;pressure_sealevel;temperature;humidity
40205;BME280;26963;42.666;23.366;2023-01-29T00:01:38;94949.16;;;2.24;62.00
40205;BME280;26963;42.666;23.366;2023-01-29T00:04:03;95026.00;;;2.73;62.18
40205;BME280;26963;42.666;23.366;2023-01-29T00:06:29;95031.22;;;2.68;62.41
40205;BME280;26963;42.666;23.366;2023-01-29T00:08:55;95008.06;;;2.41;62.78
40205;BME280;26963;42.666;23.366;2023-01-29T00:11:21;95033.38;;;2.54;62.97
40205;BME280;26963;42.666;23.366;2023-01-29T00:13:50;95008.09;;;2.58;62.57
40205;BME280;26963;42.666;23.366;2023-01-29T00:16:15;95036.13;;;2.76;62.17
40205;BME280;26963;42.666;23.366;2023-01-29T00:18:44;95020.25;;;2.76;61.30
40205;BME280;26963;42.666;23.366;2023-01-29T00:21:15;95037.00;;;2.99;60.85
40205;BME280;26963;42.666;23.366;2023-01-29T00:23:44;95042.50;;;2.98;61.35
40205;BME280;26963;42.666;23.366;2023-01-29T00:26:10;95041.63;;;3.09;60.93
40205;BME280;26963;42.666;23.366;2023-01-29T00:28:39;95038.69;;;3.05;60.55
40205;BME280;26963;42.666;23.366;2023-01-29T00:31:10;95045.06;;;3.09;61.24
40205;BME280;26963;42.666;23.366;2023-01-29T00:33:36;95034.22;;;2.89;62.09
40205;BME280;26963;42.666;23.366;2023-01-29T00:36:03;95056.47;;;2.93;62.00
40205;BME280;26963;42.666;23.366;2023-01-29T00:38:28;95058.38;;;2.98;62.38
40205;BME280;26963;42.666;23.366;2023-01-29T00:40:54;94987.09;;;2.52;61.28
40205;BME280;26963;42.666;23.366;2023-01-29T00:43:38;95052.44;;;3.07;61.45
40205;BME280;26963;42.666;23.366;2023-01-29T00:46:22;94969.72;;;2.56;61.32
40205;BME280;26963;42.666;23.366;2023-01-29T00:48:50;95025.16;;;2.68;60.48
40205;BME280;26963;42.666;23.366;2023-01-29T00:51:16;94977.34;;;2.52;61.71
40205;BME280;26963;42.666;23.366;2023-01-29T00:53:44;95054.94;;;2.97;62.15
40205;BME280;26963;42.666;23.366;2023-01-29T00:56:10;95055.34;;;2.89;62.65
40205;BME280;26963;42.666;23.366;2023-01-29T00:58:35;95032.97;;;2.80;63.07
40205;BME280;26963;42.666;23.366;2023-01-29T01:01:01;95054.84;;;2.92;62.88
40205;BME280;26963;42.666;23.366;2023-01-29T01:03:27;95038.75;;;2.93;62.86
40205;BME280;26963;42.666;23.366;2023-01-29T01:06:07;94998.00;;;2.55;61.80
40205;BME280;26963;42.666;23.366;2023-01-29T01:08:33;94963.09;;;2.36;61.63
40205;BME280;26963;42.666;23.366;2023-01-29T01:11:20;95069.97;;;2.80;62.80
40205;BME280;26963;42.666;23.366;2023-01-29T01:13:46;95048.25;;;2.60;63.55
40205;BME280;26963;42.666;23.366;2023-01-29T01:16:13;95055.81;;;2.69;63.63
40205;BME280;26963;42.666;23.366;2023-01-29T01:18:39;95051.97;;;2.76;64.18
40205;BME280;26963;42.666;23.366;2023-01-29T01:21:04;95049.00;;;2.90;63.72
40205;BME280;26963;42.666;23.366;2023-01-29T01:23:30;95021.63;;;2.79;63.12
40205;BME280;26963;42.666;23.366;2023-01-29T01:25:56;95021.53;;;2.91;63.76
40205;BME280;26963;42.666;23.366;2023-01-29T01:28:21;95039.66;;;2.99;61.89
40205;BME280;26963;42.666;23.366;2023-01-29T01:30:50;94969.66;;;2.51;61.66
40205;BME280;26963;42.666;23.366;2023-01-29T01:33:15;94963.75;;;2.43;62.14
40205;BME280;26963;42.666;23.366;2023-01-29T01:35:44;95039.88;;;2.81;63.39
40205;BME280;26963;42.666;23.366;2023-01-29T01:38:10;95043.09;;;2.83;63.27
40205;BME280;26963;42.666;23.366;2023-01-29T01:40:36;94923.28;;;1.92;63.91
40205;BME280;26963;42.666;23.366;2023-01-29T01:43:01;95036.59;;;2.90;64.15
40205;BME280;26963;42.666;23.366;2023-01-29T01:48:00;95049.25;;;3.05;63.29
40205;BME280;26963;42.666;23.366;2023-01-29T01:50:35;95043.41;;;3.03;61.68
40205;BME280;26963;42.666;23.366;2023-01-29T01:53:11;94995.09;;;2.57;62.38
40205;BME280;26963;42.666;23.366;2023-01-29T01:55:44;95024.72;;;2.76;63.15
40205;BME280;26963;42.666;23.366;2023-01-29T01:58:21;94948.63;;;2.22;63.54
40205;BME280;26963;42.666;23.366;2023-01-29T02:00:47;95058.84;;;2.94;63.86
40205;BME280;26963;42.666;23.366;2023-01-29T02:03:13;95037.22;;;2.81;63.45
40205;BME280;26963;42.666;23.366;2023-01-29T02:05:58;95063.34;;;2.94;64.47
40205;BME280;26963;42.666;23.366;2023-01-29T02:09:17;95064.47;;;2.98;63.05
40205;BME280;26963;42.666;23.366;2023-01-29T02:12:09;95034.41;;;2.87;63.54
40205;BME280;26963;42.666;23.366;2023-01-29T02:14:37;95063.66;;;3.15;63.19
40205;BME280;26963;42.666;23.366;2023-01-29T02:17:08;95064.78;;;3.19;62.83
40205;BME280;26963;42.666;23.366;2023-01-29T02:20:06;95061.72;;;3.27;62.69
40205;BME280;26963;42.666;23.366;2023-01-29T02:34:07;95015.16;;;3.26;62.48
40205;BME280;26963;42.666;23.366;2023-01-29T02:47:47;95086.72;;;3.75;61.71
40205;BME280;26963;42.666;23.366;2023-01-29T02:50:18;95078.41;;;3.67;61.97
40205;BME280;26963;42.666;23.366;2023-01-29T02:53:02;95091.44;;;3.73;61.87
40205;BME280;26963;42.666;23.366;2023-01-29T02:55:37;95067.94;;;3.55;61.99
40205;BME280;26963;42.666;23.366;2023-01-29T03:00:54;95017.31;;;3.29;62.29
40205;BME280;26963;42.666;23.366;2023-01-29T03:03:33;95071.56;;;3.71;62.45
40205;BME280;26963;42.666;23.366;2023-01-29T03:06:05;95076.38;;;3.74;62.16
40205;BME280;26963;42.666;23.366;2023-01-29T03:08:39;95064.19;;;3.73;61.99
40205;BME280;26963;42.666;23.366;2023-01-29T03:11:13;95087.09;;;3.84;61.91
40205;BME280;26963;42.666;23.366;2023-01-29T03:16:25;95027.06;;;3.46;62.49
40205;BME280;26963;42.666;23.366;2023-01-29T03:19:05;95089.75;;;3.84;61.94
40205;BME280;26963;42.666;23.366;2023-01-29T03:21:42;95075.09;;;3.77;62.22
40205;BME280;26963;42.666;23.366;2023-01-29T03:24:44;95095.81;;;3.85;61.50
40205;BME280;26963;42.666;23.366;2023-01-29T03:27:36;95086.72;;;3.75;61.69
40205;BME280;26963;42.666;23.366;2023-01-29T03:30:24;95091.28;;;3.80;61.90
40205;BME280;26963;42.666;23.366;2023-01-29T03:33:14;95056.28;;;3.56;61.81
40205;BME280;26963;42.666;23.366;2023-01-29T03:35:57;95096.34;;;3.82;61.66
40205;BME280;26963;42.666;23.366;2023-01-29T03:38:25;95032.78;;;3.37;61.46
40205;BME280;26963;42.666;23.366;2023-01-29T03:41:04;95064.31;;;3.61;61.60
40205;BME280;26963;42.666;23.366;2023-01-29T03:43:50;94974.75;;;3.08;61.47
40205;BME280;26963;42.666;23.366;2023-01-29T03:46:38;95083.88;;;3.82;61.24
40205;BME280;26963;42.666;23.366;2023-01-29T03:49:14;95014.81;;;3.39;61.11
40205;BME280;26963;42.666;23.366;2023-01-29T03:57:03;95087.88;;;3.85;61.40
40205;BME280;26963;42.666;23.366;2023-01-29T04:02:17;95095.28;;;3.83;61.45
40205;BME280;26963;42.666;23.366;2023-01-29T04:04:47;95095.88;;;3.90;61.36
40205;BME280;26963;42.666;23.366;2023-01-29T04:07:20;95094.31;;;3.89;61.76
40205;BME280;26963;42.666;23.366;2023-01-29T04:10:11;95095.09;;;3.89;61.87
40205;BME280;26963;42.666;23.366;2023-01-29T04:12:43;95073.75;;;3.74;61.91
40205;BME280;26963;42.666;23.366;2023-01-29T04:15:14;94840.38;;;2.22;61.87
40205;BME280;26963;42.666;23.366;2023-01-29T04:17:44;95096.97;;;3.89;61.93
40205;BME280;26963;42.666;23.366;2023-01-29T04:20:13;95087.56;;;3.81;61.60
40205;BME280;26963;42.666;23.366;2023-01-29T04:22:39;95091.03;;;3.82;61.21
40205;BME280;26963;42.666;23.366;2023-01-29T04:25:07;95087.75;;;3.74;61.03
40205;BME280;26963;42.666;23.366;2023-01-29T04:52:59;95118.28;;;3.82;61.32
40205;BME280;26963;42.666;23.366;2023-01-29T04:55:33;95111.81;;;3.73;61.31
40205;BME280;26963;42.666;23.366;2023-01-29T04:58:05;95125.13;;;3.78;61.65
40205;BME280;26963;42.666;23.366;2023-01-29T05:00:37;95126.41;;;3.75;61.87
40205;BME280;26963;42.666;23.366;2023-01-29T05:03:04;95114.78;;;3.77;61.94
40205;BME280;26963;42.666;23.366;2023-01-29T05:05:31;95060.25;;;3.36;61.40
40205;BME280;26963;42.666;23.366;2023-01-29T05:07:58;95127.78;;;3.78;61.20
40205;BME280;26963;42.666;23.366;2023-01-29T05:10:24;95088.59;;;3.58;61.41
40205;BME280;26963;42.666;23.366;2023-01-29T05:12:57;95085.25;;;3.46;61.17
40205;BME280;26963;42.666;23.366;2023-01-29T05:15:33;95125.31;;;3.71;61.46
40205;BME280;26963;42.666;23.366;2023-01-29T05:17:59;95131.13;;;3.73;61.36
40205;BME280;26963;42.666;23.366;2023-01-29T05:20:30;95103.44;;;3.59;61.48
40205;BME280;26963;42.666;23.366;2023-01-29T05:22:57;95121.31;;;3.69;61.60
40205;BME280;26963;42.666;23.366;2023-01-29T05:25:25;95131.13;;;3.73;61.19
40205;BME280;26963;42.666;23.366;2023-01-29T05:27:51;95110.34;;;3.60;61.01
40205;BME280;26963;42.666;23.366;2023-01-29T05:30:39;95139.09;;;3.73;60.78
40205;BME280;26963;42.666;23.366;2023-01-29T05:33:12;95086.63;;;3.31;60.66
40205;BME280;26963;42.666;23.366;2023-01-29T05:35:38;95125.06;;;3.56;61.15
40205;BME280;26963;42.666;23.366;2023-01-29T05:38:03;95143.50;;;3.68;61.66
40205;BME280;26963;42.666;23.366;2023-01-29T05:40:29;95119.06;;;3.61;61.67
40205;BME280;26963;42.666;23.366;2023-01-29T05:42:54;95087.22;;;3.33;61.40
40205;BME280;26963;42.666;23.366;2023-01-29T05:45:20;94981.84;;;2.69;61.44
40205;BME280;26963;42.666;23.366;2023-01-29T05:47:45;95141.25;;;3.77;61.47
40205;BME280;26963;42.666;23.366;2023-01-29T05:50:14;95148.69;;;3.80;61.59
40205;BME280;26963;42.666;23.366;2023-01-29T05:52:40;95128.44;;;3.68;61.57
40205;BME280;26963;42.666;23.366;2023-01-29T05:55:07;95143.59;;;3.73;61.32
40205;BME280;26963;42.666;23.366;2023-01-29T05:57:33;95111.31;;;3.54;61.68
40205;BME280;26963;42.666;23.366;2023-01-29T05:59:59;95073.59;;;3.24;62.15
40205;BME280;26963;42.666;23.366;2023-01-29T06:02:24;95141.19;;;3.71;61.89
40205;BME280;26963;42.666;23.366;2023-01-29T06:04:50;95042.19;;;3.11;61.71
40205;BME280;26963;42.666;23.366;2023-01-29T06:07:19;95163.28;;;3.82;61.82
40205;BME280;26963;42.666;23.366;2023-01-29T06:09:44;95159.59;;;3.83;61.68
40205;BME280;26963;42.666;23.366;2023-01-29T06:12:10;95142.63;;;3.62;61.64
40205;BME280;26963;42.666;23.366;2023-01-29T06:14:35;95173.56;;;3.79;61.40
40205;BME280;26963;42.666;23.366;2023-01-29T06:17:01;95123.56;;;3.43;61.82
40205;BME280;26963;42.666;23.366;2023-01-29T06:19:26;95072.06;;;3.12;61.90
40205;BME280;26963;42.666;23.366;2023-01-29T06:21:54;95188.66;;;3.78;62.10
40205;BME280;26963;42.666;23.366;2023-01-29T06:24:20;95091.84;;;3.26;62.34
40205;BME280;26963;42.666;23.366;2023-01-29T06:26:45;95172.06;;;3.83;61.93
40205;BME280;26963;42.666;23.366;2023-01-29T06:29:14;95192.31;;;3.94;62.00
40205;BME280;26963;42.666;23.366;2023-01-29T06:31:40;95188.59;;;3.95;62.30
40205;BME280;26963;42.666;23.366;2023-01-29T06:34:06;95195.34;;;4.03;61.92
40205;BME280;26963;42.666;23.366;2023-01-29T06:36:32;95184.44;;;3.99;61.54
40205;BME280;26963;42.666;23.366;2023-01-29T06:38:57;95165.28;;;3.92;61.48
40205;BME280;26963;42.666;23.366;2023-01-29T06:41:23;95196.78;;;4.11;61.11
40205;BME280;26963;42.666;23.366;2023-01-29T06:43:50;95183.53;;;4.11;61.41
40205;BME280;26963;42.666;23.366;2023-01-29T06:46:15;95203.19;;;4.15;61.03
40205;BME280;26963;42.666;23.366;2023-01-29T06:48:43;95171.16;;;3.94;60.54
40205;BME280;26963;42.666;23.366;2023-01-29T06:51:09;95087.81;;;3.40;60.50
40205;BME280;26963;42.666;23.366;2023-01-29T06:53:37;95182.34;;;4.01;60.90
40205;BME280;26963;42.666;23.366;2023-01-29T06:56:04;95210.69;;;4.23;61.24
40205;BME280;26963;42.666;23.366;2023-01-29T06:58:30;95167.44;;;3.95;61.09
40205;BME280;26963;42.666;23.366;2023-01-29T07:01:06;95159.41;;;3.90;60.81
40205;BME280;26963;42.666;23.366;2023-01-29T07:03:32;95169.69;;;4.03;61.23
40205;BME280;26963;42.666;23.366;2023-01-29T07:05:58;95191.97;;;4.07;61.61
40205;BME280;26963;42.666;23.366;2023-01-29T07:08:23;95199.00;;;4.19;60.79
40205;BME280;26963;42.666;23.366;2023-01-29T07:10:49;95192.91;;;4.18;61.35
40205;BME280;26963;42.666;23.366;2023-01-29T07:13:15;95181.38;;;4.07;60.65
40205;BME280;26963;42.666;23.366;2023-01-29T07:15:40;95200.09;;;4.23;60.95
40205;BME280;26963;42.666;23.366;2023-01-29T07:18:07;95228.41;;;4.39;60.77
40205;BME280;26963;42.666;23.366;2023-01-29T07:20:41;95230.06;;;4.46;60.86
40205;BME280;26963;42.666;23.366;2023-01-29T07:23:11;95151.38;;;4.02;60.69
40205;BME280;26963;42.666;23.366;2023-01-29T07:25:38;95216.88;;;4.51;60.51
40205;BME280;26963;42.666;23.366;2023-01-29T07:28:03;95196.00;;;4.32;59.99
40205;BME280;26963;42.666;23.366;2023-01-29T07:30:29;95214.72;;;4.48;60.35
40205;BME280;26963;42.666;23.366;2023-01-29T07:33:08;95235.56;;;4.61;60.35
40205;BME280;26963;42.666;23.366;2023-01-29T07:35:39;95236.13;;;4.63;59.87
40205;BME280;26963;42.666;23.366;2023-01-29T07:38:05;95030.53;;;3.29;59.65
40205;BME280;26963;42.666;23.366;2023-01-29T07:40:31;95232.31;;;4.54;59.54
40205;BME280;26963;42.666;23.366;2023-01-29T07:43:03;95241.41;;;4.63;59.87
40205;BME280;26963;42.666;23.366;2023-01-29T07:45:29;95198.22;;;4.40;60.00
40205;BME280;26963;42.666;23.366;2023-01-29T07:47:56;95228.09;;;4.58;60.15
40205;BME280;26963;42.666;23.366;2023-01-29T07:50:23;95221.69;;;4.54;59.97
40205;BME280;26963;42.666;23.366;2023-01-29T07:52:49;95243.59;;;4.66;59.37
40205;BME280;26963;42.666;23.366;2023-01-29T07:55:16;95236.63;;;4.60;59.79
40205;BME280;26963;42.666;23.366;2023-01-29T07:57:42;95252.53;;;4.60;60.41
40205;BME280;26963;42.666;23.366;2023-01-29T08:00:09;95244.97;;;4.52;60.57
40205;BME280;26963;42.666;23.366;2023-01-29T08:02:35;95243.94;;;4.53;61.21
40205;BME280;26963;42.666;23.366;2023-01-29T08:05:01;95219.34;;;4.35;61.50
40205;BME280;26963;42.666;23.366;2023-01-29T08:07:26;95193.69;;;4.19;60.95
40205;BME280;26963;42.666;23.366;2023-01-29T08:09:52;95231.59;;;4.41;60.84
40205;BME280;26963;42.666;23.366;2023-01-29T08:12:18;95252.78;;;4.59;60.73
40205;BME280;26963;42.666;23.366;2023-01-29T08:14:43;95195.94;;;4.27;60.11
40205;BME280;26963;42.666;23.366;2023-01-29T08:17:11;95264.16;;;4.59;60.20
40205;BME280;26963;42.666;23.366;2023-01-29T08:19:37;95271.06;;;4.60;60.34
40205;BME280;26963;42.666;23.366;2023-01-29T08:22:03;95263.13;;;4.60;60.19
40205;BME280;26963;42.666;23.366;2023-01-29T08:24:29;95255.59;;;4.52;60.36
40205;BME280;26963;42.666;23.366;2023-01-29T08:26:55;95138.59;;;3.77;60.20
40205;BME280;26963;42.666;23.366;2023-01-29T08:29:21;95258.81;;;4.54;60.07
40205;BME280;26963;42.666;23.366;2023-01-29T08:31:46;95208.63;;;4.25;59.73
40205;BME280;26963;42.666;23.366;2023-01-29T08:34:12;95265.53;;;4.62;59.31
40205;BME280;26963;42.666;23.366;2023-01-29T08:36:40;95189.75;;;4.21;59.50
40205;BME280;26963;42.666;23.366;2023-01-29T08:39:05;95254.91;;;4.62;59.14
40205;BME280;26963;42.666;23.366;2023-01-29T08:41:31;95270.03;;;4.61;59.64
40205;BME280;26963;42.666;23.366;2023-01-29T08:43:56;95270.03;;;4.61;59.31
40205;BME280;26963;42.666;23.366;2023-01-29T08:46:24;95280.88;;;4.82;59.29
40205;BME280;26963;42.666;23.366;2023-01-29T08:48:50;95205.00;;;4.31;58.32
40205;BME280;26963;42.666;23.366;2023-01-29T08:51:15;95169.16;;;4.06;58.46
40205;BME280;26963;42.666;23.366;2023-01-29T08:53:41;95295.81;;;4.88;58.15
40205;BME280;26963;42.666;23.366;2023-01-29T08:56:07;95285.34;;;4.81;57.73
40205;BME280;26963;42.666;23.366;2023-01-29T08:58:32;95290.44;;;4.83;58.12
40205;BME280;26963;42.666;23.366;2023-01-29T09:01:05;95287.72;;;4.78;57.73
40205;BME280;26963;42.666;23.366;2023-01-29T09:03:31;95293.75;;;4.73;57.83
40205;BME280;26963;42.666;23.366;2023-01-29T09:05:56;95268.28;;;4.50;57.51
40205;BME280;26963;42.666;23.366;2023-01-29T09:08:25;95300.81;;;4.67;57.68
40205;BME280;26963;42.666;23.366;2023-01-29T09:10:50;95258.66;;;4.44;57.89
40205;BME280;26963;42.666;23.366;2023-01-29T09:13:16;95299.84;;;4.73;57.82
40205;BME280;26963;42.666;23.366;2023-01-29T09:15:41;95295.19;;;4.81;58.37
40205;BME280;26963;42.666;23.366;2023-01-29T09:18:07;95283.47;;;4.77;57.66
40205;BME280;26963;42.666;23.366;2023-01-29T09:20:33;95290.97;;;4.85;57.48
40205;BME280;26963;42.666;23.366;2023-01-29T09:23:03;95253.44;;;4.49;57.73
40205;BME280;26963;42.666;23.366;2023-01-29T09:25:29;95259.25;;;4.68;57.63
40205;BME280;26963;42.666;23.366;2023-01-29T09:27:55;95266.59;;;4.83;57.99
40205;BME280;26963;42.666;23.366;2023-01-29T09:30:21;95263.88;;;4.78;57.74
40205;BME280;26963;42.666;23.366;2023-01-29T09:32:46;95262.31;;;4.82;57.32
40205;BME280;26963;42.666;23.366;2023-01-29T09:35:12;95230.75;;;4.58;56.94
40205;BME280;26963;42.666;23.366;2023-01-29T09:37:37;95276.19;;;4.89;57.01
40205;BME280;26963;42.666;23.366;2023-01-29T09:40:03;95272.19;;;4.86;56.56
40205;BME280;26963;42.666;23.366;2023-01-29T09:42:45;95300.66;;;4.96;57.43
40205;BME280;26963;42.666;23.366;2023-01-29T09:45:19;95270.91;;;4.89;56.79
40205;BME280;26963;42.666;23.366;2023-01-29T09:47:46;95260.47;;;4.82;56.91
40205;BME280;26963;42.666;23.366;2023-01-29T09:50:27;95280.00;;;4.98;56.71
40205;BME280;26963;42.666;23.366;2023-01-29T09:53:01;95280.00;;;4.98;57.08
40205;BME280;26963;42.666;23.366;2023-01-29T09:55:42;95257.66;;;4.89;56.68
40205;BME280;26963;42.666;23.366;2023-01-29T09:58:30;95288.81;;;5.04;56.88
40205;BME280;26963;42.666;23.366;2023-01-29T10:21:31;95251.47;;;4.83;56.32
40205;BME280;26963;42.666;23.366;2023-01-29T10:24:29;95268.47;;;4.87;56.75
40205;BME280;26963;42.666;23.366;2023-01-29T10:26:59;95197.03;;;4.53;56.70
40205;BME280;26963;42.666;23.366;2023-01-29T10:29:26;95192.63;;;4.59;56.55
40205;BME280;26963;42.666;23.366;2023-01-29T10:31:57;95231.03;;;4.84;56.55
40205;BME280;26963;42.666;23.366;2023-01-29T10:36:54;95231.19;;;4.94;56.78
40205;BME280;26963;42.666;23.366;2023-01-29T10:39:23;95234.47;;;5.06;56.93
40205;BME280;26963;42.666;23.366;2023-01-29T10:50:13;95242.03;;;5.20;56.47
40205;BME280;26963;42.666;23.366;2023-01-29T10:58:42;95181.78;;;4.88;57.01
40205;BME280;26963;42.666;23.366;2023-01-29T11:01:09;95219.72;;;5.16;56.62
40205;BME280;26963;42.666;23.366;2023-01-29T11:03:35;95217.25;;;5.09;56.74
40205;BME280;26963;42.666;23.366;2023-01-29T11:11:34;95231.69;;;5.18;56.35
40205;BME280;26963;42.666;23.366;2023-01-29T11:14:03;95213.06;;;5.13;56.10
40205;BME280;26963;42.666;23.366;2023-01-29T11:16:39;95181.63;;;5.00;56.43
40205;BME280;26963;42.666;23.366;2023-01-29T11:19:05;95207.03;;;5.23;55.95
40205;BME280;26963;42.666;23.366;2023-01-29T11:21:31;95182.03;;;5.14;55.80
40205;BME280;26963;42.666;23.366;2023-01-29T11:24:10;95132.50;;;4.92;55.75
40205;BME280;26963;42.666;23.366;2023-01-29T11:26:39;95146.06;;;4.96;55.65
40205;BME280;26963;42.666;23.366;2023-01-29T11:29:39;95193.41;;;5.42;55.27
40205;BME280;26963;42.666;23.366;2023-01-29T11:32:14;94945.25;;;3.88;55.08
40205;BME280;26963;42.666;23.366;2023-01-29T11:37:40;95134.91;;;5.21;54.79
40205;BME280;26963;42.666;23.366;2023-01-29T11:42:47;95192.16;;;5.82;54.84
40205;BME280;26963;42.666;23.366;2023-01-29T11:47:48;95174.66;;;5.91;54.43
40205;BME280;26963;42.666;23.366;2023-01-29T11:50:23;95167.25;;;5.93;54.61
40205;BME280;26963;42.666;23.366;2023-01-29T11:52:50;95184.88;;;6.04;54.25
40205;BME280;26963;42.666;23.366;2023-01-29T11:55:27;95186.50;;;6.11;53.97
40205;BME280;26963;42.666;23.366;2023-01-29T11:57:57;95129.19;;;5.77;54.29
40205;BME280;26963;42.666;23.366;2023-01-29T12:00:31;95169.44;;;6.01;53.55
40205;BME280;26963;42.666;23.366;2023-01-29T12:05:56;95184.88;;;6.04;53.92
40205;BME280;26963;42.666;23.366;2023-01-29T12:08:23;95183.97;;;5.94;54.51
40205;BME280;26963;42.666;23.366;2023-01-29T12:10:49;95001.88;;;4.69;54.05
40205;BME280;26963;42.666;23.366;2023-01-29T12:13:26;95172.56;;;5.93;53.85
40205;BME280;26963;42.666;23.366;2023-01-29T12:18:43;95152.63;;;5.91;53.76
40205;BME280;26963;42.666;23.366;2023-01-29T12:21:15;95141.13;;;5.80;54.34
40205;BME280;26963;42.666;23.366;2023-01-29T12:24:11;95152.28;;;5.77;52.85
40205;BME280;26963;42.666;23.366;2023-01-29T12:26:52;95163.41;;;5.74;53.38
40205;BME280;26963;42.666;23.366;2023-01-29T12:29:22;95176.22;;;5.82;54.29
40205;BME280;26963;42.666;23.366;2023-01-29T12:37:18;95169.50;;;5.69;53.84
40205;BME280;26963;42.666;23.366;2023-01-29T12:39:45;95183.63;;;5.80;54.76
40205;BME280;26963;42.666;23.366;2023-01-29T12:42:16;95167.06;;;5.67;53.95
40205;BME280;26963;42.666;23.366;2023-01-29T12:47:21;95152.22;;;5.66;54.93
40205;BME280;26963;42.666;23.366;2023-01-29T12:49:51;95178.84;;;5.77;54.36
40205;BME280;26963;42.666;23.366;2023-01-29T12:55:10;95178.31;;;5.80;54.45
40205;BME280;26963;42.666;23.366;2023-01-29T13:00:18;95098.84;;;5.25;54.23
40205;BME280;26963;42.666;23.366;2023-01-29T13:03:47;95183.13;;;5.83;54.06
40205;BME280;26963;42.666;23.366;2023-01-29T13:06:04;95074.84;;;5.10;54.49
40205;BME280;26963;42.666;23.366;2023-01-29T13:08:39;95185.75;;;5.78;54.29
40205;BME280;26963;42.666;23.366;2023-01-29T13:11:20;95146.38;;;5.69;54.83
40205;BME280;26963;42.666;23.366;2023-01-29T13:16:24;95175.56;;;5.64;54.51
40205;BME280;26963;42.666;23.366;2023-01-29T13:18:56;95096.44;;;5.23;54.37
40205;BME280;26963;42.666;23.366;2023-01-29T13:21:26;95176.06;;;5.61;54.07
40205;BME280;26963;42.666;23.366;2023-01-29T13:24:03;95161.16;;;5.55;53.90
40205;BME280;26963;42.666;23.366;2023-01-29T13:26:29;95089.13;;;5.03;54.19
40205;BME280;26963;42.666;23.366;2023-01-29T13:28:56;95135.50;;;5.28;54.41
40205;BME280;26963;42.666;23.366;2023-01-29T13:34:33;95180.78;;;5.54;54.16
40205;BME280;26963;42.666;23.366;2023-01-29T13:37:00;95148.13;;;5.16;53.92
40205;BME280;26963;42.666;23.366;2023-01-29T13:39:34;95166.81;;;5.31;54.62
40205;BME280;26963;42.666;23.366;2023-01-29T13:42:15;95176.78;;;5.19;54.63
40205;BME280;26963;42.666;23.366;2023-01-29T13:44:47;95177.72;;;5.07;54.82
40205;BME280;26963;42.666;23.366;2023-01-29T13:47:23;95184.53;;;4.98;54.90
40205;BME280;26963;42.666;23.366;2023-01-29T13:49:55;95200.84;;;5.12;55.05
40205;BME280;26963;42.666;23.366;2023-01-29T13:54:54;95173.94;;;4.98;54.66
40205;BME280;26963;42.666;23.366;2023-01-29T14:05:42;95195.47;;;5.02;55.27
40205;BME280;26963;42.666;23.366;2023-01-29T14:10:36;95203.66;;;5.00;54.75
40205;BME280;26963;42.666;23.366;2023-01-29T14:16:25;95207.16;;;5.06;55.88
40205;BME280;26963;42.666;23.366;2023-01-29T14:18:33;95213.06;;;5.13;54.87
40205;BME280;26963;42.666;23.366;2023-01-29T14:21:20;95201.56;;;5.02;54.56
40205;BME280;26963;42.666;23.366;2023-01-29T14:26:31;95106.47;;;4.34;54.81
40205;BME280;26963;42.666;23.366;2023-01-29T14:29:04;95141.84;;;4.45;54.78
40205;BME280;26963;42.666;23.366;2023-01-29T14:37:00;95237.69;;;5.09;55.16
40205;BME280;26963;42.666;23.366;2023-01-29T14:39:32;95239.78;;;5.06;54.38
40205;BME280;26963;42.666;23.366;2023-01-29T14:42:01;95194.38;;;4.76;54.93
40205;BME280;26963;42.666;23.366;2023-01-29T14:52:50;95192.66;;;4.42;55.07
40205;BME280;26963;42.666;23.366;2023-01-29T14:55:47;95219.78;;;4.71;55.45
40205;BME280;26963;42.666;23.366;2023-01-29T14:58:41;95208.00;;;4.62;55.76
40205;BME280;26963;42.666;23.366;2023-01-29T15:01:19;95143.88;;;4.16;56.33
40205;BME280;26963;42.666;23.366;2023-01-29T15:04:12;95175.06;;;4.31;56.44
40205;BME280;26963;42.666;23.366;2023-01-29T15:06:45;95224.59;;;4.52;56.78
40205;BME280;26963;42.666;23.366;2023-01-29T15:09:13;95232.78;;;4.73;56.90
40205;BME280;26963;42.666;23.366;2023-01-29T15:14:46;95138.53;;;4.11;57.35
40205;BME280;26963;42.666;23.366;2023-01-29T15:17:21;95234.66;;;4.72;56.79
40205;BME280;26963;42.666;23.366;2023-01-29T15:19:49;95203.09;;;4.49;56.76
40205;BME280;26963;42.666;23.366;2023-01-29T15:22:19;95206.78;;;4.48;57.02
40205;BME280;26963;42.666;23.366;2023-01-29T15:24:47;95221.13;;;4.52;57.58
40205;BME280;26963;42.666;23.366;2023-01-29T15:27:26;95241.91;;;4.60;57.28
40205;BME280;26963;42.666;23.366;2023-01-29T15:29:58;95249.88;;;4.60;57.52
40205;BME280;26963;42.666;23.366;2023-01-29T15:32:32;95234.38;;;4.52;57.75
40205;BME280;26963;42.666;23.366;2023-01-29T15:34:59;95252.31;;;4.67;57.43
40205;BME280;26963;42.666;23.366;2023-01-29T15:37:31;95251.75;;;4.65;57.11
40205;BME280;26963;42.666;23.366;2023-01-29T15:39:58;95244.13;;;4.46;57.46
40205;BME280;26963;42.666;23.366;2023-01-29T15:42:28;95216.44;;;4.37;56.83
40205;BME280;26963;42.666;23.366;2023-01-29T15:44:55;95224.63;;;4.35;56.47
40205;BME280;26963;42.666;23.366;2023-01-29T15:47:29;95143.34;;;3.74;57.06
40205;BME280;26963;42.666;23.366;2023-01-29T15:49:56;95165.69;;;3.84;57.22
40205;BME280;26963;42.666;23.366;2023-01-29T15:52:27;95211.13;;;4.15;57.84
40205;BME280;26963;42.666;23.366;2023-01-29T15:54:56;95174.75;;;3.88;57.51
40205;BME280;26963;42.666;23.366;2023-01-29T15:57:24;95261.72;;;4.35;57.78
40205;BME280;26963;42.666;23.366;2023-01-29T15:59:52;95139.75;;;3.64;58.10
40205;BME280;26963;42.666;23.366;2023-01-29T16:02:41;95207.53;;;4.04;58.05
40205;BME280;26963;42.666;23.366;2023-01-29T16:05:13;95246.25;;;4.27;58.11
40205;BME280;26963;42.666;23.366;2023-01-29T16:07:40;95250.34;;;4.18;57.69
40205;BME280;26963;42.666;23.366;2023-01-29T16:10:19;95265.66;;;4.33;58.00
40205;BME280;26963;42.666;23.366;2023-01-29T16:12:47;95237.88;;;4.13;57.93
40205;BME280;26963;42.666;23.366;2023-01-29T16:15:30;95209.00;;;3.95;58.16